Time;durP1;ratioP1;P1;durP2;ratioP2;P2;SDS_P1;SDS_P2;PMS_P1;PMS_P2;Temp;Humidity;BMP_temperature;BMP_pressure;BME280_temperature;BME280_humidity;BME280_pressure;Samples;Min_cycle;Max_cycle;Signal;HPM_P1;HPM_P2
2021/12/19 00:01:02;;;;;;;13.37;8.10;;;-3.40;99.90;;;;;;2079423;28;20182;-69
2021/12/19 00:03:47;;;;;;;13.40;8.00;;;-3.40;99.90;;;;;;2074038;28;20651;-73
2021/12/19 00:08:53;;;;;;;9.60;5.10;;;-3.40;99.90;;;;;;2080176;28;20685;-68
2021/12/19 00:09:54;;;;;;;10.67;5.90;;;-3.40;99.90;;;;;;2080372;28;20195;-68
2021/12/19 00:10:56;;;;;;;13.88;7.15;;;-3.40;99.90;;;;;;2080307;28;20289;-68
2021/12/19 00:11:58;;;;;;;10.80;6.13;;;-3.40;99.90;;;;;;2085682;28;20179;-69
2021/12/19 00:12:59;;;;;;;9.20;5.60;;;-3.40;99.90;;;;;;2079568;28;20176;-69
2021/12/19 00:14:02;;;;;;;10.00;5.70;;;-3.40;99.90;;;;;;2079657;28;20202;-70
2021/12/19 00:15:03;;;;;;;12.15;7.65;;;-3.40;99.90;;;;;;2080788;28;20181;-70
2021/12/19 00:16:04;;;;;;;10.68;5.57;;;-3.40;99.90;;;;;;2085410;28;20180;-69
2021/12/19 00:17:05;;;;;;;10.63;5.83;;;-3.40;99.90;;;;;;2080290;28;20181;-68
2021/12/19 00:18:05;;;;;;;12.97;5.83;;;-3.40;99.90;;;;;;2080514;28;20852;-68
2021/12/19 00:19:06;;;;;;;8.63;4.90;;;-3.40;99.90;;;;;;2082072;28;20204;-72
2021/12/19 00:20:07;;;;;;;8.53;4.57;;;-3.40;99.90;;;;;;2084888;28;20172;-71
2021/12/19 00:21:10;;;;;;;8.48;5.22;;;-3.40;99.90;;;;;;2079461;28;20297;-69
2021/12/19 00:22:11;;;;;;;11.05;5.32;;;-3.40;99.90;;;;;;2079918;28;20188;-69
2021/12/19 00:23:12;;;;;;;9.33;5.03;;;-3.40;99.90;;;;;;2082852;28;20256;-72
2021/12/19 00:24:13;;;;;;;8.32;5.00;;;-3.40;99.90;;;;;;2083588;28;20179;-68
2021/12/19 00:25:14;;;;;;;8.98;4.90;;;-3.40;99.90;;;;;;2079472;28;20198;-72
2021/12/19 00:26:16;;;;;;;9.07;4.37;;;-3.40;99.90;;;;;;2080419;28;20679;-68
2021/12/19 00:27:17;;;;;;;7.57;4.57;;;-3.40;99.90;;;;;;2083291;28;20177;-70
2021/12/19 00:28:18;;;;;;;8.33;3.77;;;-3.40;99.90;;;;;;2083553;28;20181;-70
2021/12/19 00:29:18;;;;;;;9.13;4.80;;;-3.40;99.90;;;;;;2079452;28;20208;-69
2021/12/19 00:30:19;;;;;;;7.20;4.27;;;-3.40;99.90;;;;;;2079781;28;20597;-71
2021/12/19 00:31:20;;;;;;;4.63;3.23;;;-3.40;99.90;;;;;;2074975;28;20190;-68
2021/12/19 00:32:21;;;;;;;5.63;3.43;;;-3.40;99.90;;;;;;2074306;28;20848;-67
2021/12/19 00:33:22;;;;;;;6.07;4.00;;;-3.40;99.90;;;;;;2080538;28;20183;-69
2021/12/19 00:34:23;;;;;;;6.57;3.80;;;-3.30;99.90;;;;;;2080374;28;20187;-69
2021/12/19 00:35:24;;;;;;;6.97;4.20;;;-3.30;99.90;;;;;;2084262;28;20203;-69
2021/12/19 00:36:26;;;;;;;8.47;4.07;;;-3.40;99.90;;;;;;2081790;28;20910;-68
2021/12/19 00:37:26;;;;;;;4.90;2.95;;;-3.30;99.90;;;;;;2071648;28;20180;-70
2021/12/19 00:38:27;;;;;;;6.73;4.23;;;-3.30;99.90;;;;;;2079600;28;20274;-70
2021/12/19 00:39:30;;;;;;;6.90;3.87;;;-3.30;99.90;;;;;;2085300;28;20174;-69
2021/12/19 00:40:32;;;;;;;8.55;3.70;;;-3.30;99.90;;;;;;2080995;28;20437;-70
2021/12/19 00:41:33;;;;;;;5.18;2.90;;;-3.40;99.90;;;;;;2079934;28;20179;-70
2021/12/19 00:42:36;;;;;;;5.97;3.20;;;-3.40;99.90;;;;;;2079816;28;20212;-70
2021/12/19 00:43:45;;;;;;;5.80;3.10;;;-3.40;99.90;;;;;;2085722;28;20237;-75
2021/12/19 00:44:46;;;;;;;5.90;3.40;;;-3.40;99.90;;;;;;2081283;28;20655;-67
2021/12/19 00:45:47;;;;;;;5.10;3.00;;;-3.40;99.90;;;;;;2081996;28;20194;-67
2021/12/19 00:46:51;;;;;;;8.23;3.22;;;-3.40;99.90;;;;;;2081815;28;20183;-68
2021/12/19 00:47:52;;;;;;;5.15;3.17;;;-3.40;99.90;;;;;;2088241;28;20178;-69
2021/12/19 00:48:55;;;;;;;7.37;3.80;;;-3.40;99.90;;;;;;2081689;28;20218;-68
2021/12/19 00:49:56;;;;;;;5.00;3.30;;;-3.40;99.90;;;;;;2075258;28;20223;-69
2021/12/19 00:50:56;;;;;;;5.67;2.97;;;-3.50;99.80;;;;;;2081267;28;20200;-68
2021/12/19 00:51:57;;;;;;;5.57;3.27;;;-3.50;99.90;;;;;;2087893;28;20174;-73
2021/12/19 00:52:58;;;;;;;5.10;3.00;;;-3.50;99.80;;;;;;2081896;28;20172;-68
2021/12/19 00:53:59;;;;;;;4.60;3.10;;;-3.50;99.80;;;;;;2081955;28;20170;-69
2021/12/19 00:54:59;;;;;;;5.77;3.03;;;-3.50;99.90;;;;;;2081728;28;20179;-68
2021/12/19 00:56:01;;;;;;;5.20;3.03;;;-3.50;99.90;;;;;;2082561;28;20252;-71
2021/12/19 00:57:01;;;;;;;4.53;2.95;;;-3.50;99.90;;;;;;2081670;28;20255;-69
2021/12/19 00:58:04;;;;;;;5.23;2.87;;;-3.50;99.90;;;;;;2081948;28;20242;-69
2021/12/19 00:59:05;;;;;;;4.78;2.80;;;-3.50;99.90;;;;;;2081592;28;20198;-69
2021/12/19 01:00:09;;;;;;;4.82;2.50;;;-3.50;99.90;;;;;;2073725;28;20573;-70
2021/12/19 01:01:13;;;;;;;5.00;2.58;;;-3.50;99.90;;;;;;2081498;28;20218;-70
2021/12/19 01:02:13;;;;;;;3.88;2.60;;;-3.50;99.90;;;;;;2081712;28;20176;-69
2021/12/19 01:03:15;;;;;;;6.43;3.07;;;-3.50;99.90;;;;;;2081703;28;20701;-69
2021/12/19 01:04:19;;;;;;;8.70;4.13;;;-3.50;99.90;;;;;;2081717;28;20286;-69
2021/12/19 01:05:19;;;;;;;7.57;3.42;;;-3.50;99.90;;;;;;2073739;28;20279;-70
2021/12/19 01:06:20;;;;;;;7.73;3.87;;;-3.50;99.90;;;;;;2073396;28;20634;-70
2021/12/19 01:07:21;;;;;;;6.00;3.55;;;-3.50;99.90;;;;;;2081544;28;20269;-69
2021/12/19 01:08:22;;;;;;;5.57;3.17;;;-3.50;99.90;;;;;;2081730;28;20180;-70
2021/12/19 01:09:23;;;;;;;6.23;3.47;;;-3.50;99.90;;;;;;2082063;28;20214;-69
2021/12/19 01:10:23;;;;;;;10.83;4.83;;;-3.50;99.90;;;;;;2082217;28;20191;-70
2021/12/19 01:11:24;;;;;;;11.57;5.78;;;-3.50;99.90;;;;;;2081543;28;20175;-69
2021/12/19 01:12:26;;;;;;;19.37;8.63;;;-3.60;99.90;;;;;;2073485;28;20192;-70
2021/12/19 01:13:26;;;;;;;25.45;10.40;;;-3.60;99.90;;;;;;2081801;28;20173;-69
2021/12/19 01:14:27;;;;;;;22.07;10.50;;;-3.50;99.90;;;;;;2081656;28;20186;-69
2021/12/19 01:15:29;;;;;;;22.27;11.47;;;-3.60;99.90;;;;;;2073441;28;20320;-69
2021/12/19 01:16:30;;;;;;;22.55;10.52;;;-3.60;99.90;;;;;;2081613;28;20215;-69
2021/12/19 01:17:30;;;;;;;20.97;8.53;;;-3.50;99.90;;;;;;2081522;28;20186;-69
2021/12/19 01:18:31;;;;;;;15.90;7.50;;;-3.50;99.90;;;;;;2073042;28;20230;-69
2021/12/19 01:19:32;;;;;;;12.82;6.40;;;-3.50;99.90;;;;;;2073415;28;20306;-69
2021/12/19 01:20:36;;;;;;;15.13;7.07;;;-3.50;99.90;;;;;;2081408;28;20569;-69
2021/12/19 01:21:37;;;;;;;14.73;6.72;;;-3.40;99.90;;;;;;2081509;28;20226;-69
2021/12/19 01:22:37;;;;;;;15.50;7.23;;;-3.50;99.90;;;;;;2082127;28;20241;-69
2021/12/19 01:23:38;;;;;;;10.73;6.13;;;-3.40;99.90;;;;;;2082146;28;20191;-69
2021/12/19 01:24:39;;;;;;;9.60;5.30;;;-3.40;99.90;;;;;;2081368;28;20178;-70
2021/12/19 01:25:40;;;;;;;8.87;5.10;;;-3.50;99.90;;;;;;2081408;28;20249;-69
2021/12/19 01:26:42;;;;;;;7.50;4.05;;;-3.40;99.90;;;;;;2081431;28;20172;-69
2021/12/19 01:27:43;;;;;;;7.93;4.70;;;-3.40;99.90;;;;;;2081179;28;20179;-69
2021/12/19 01:28:44;;;;;;;7.90;4.28;;;-3.50;99.90;;;;;;2073288;28;20676;-69
2021/12/19 01:29:44;;;;;;;9.87;5.67;;;-3.50;99.90;;;;;;2081439;28;20190;-70
2021/12/19 01:30:46;;;;;;;10.43;5.33;;;-3.50;99.90;;;;;;2082088;28;20176;-69
2021/12/19 01:31:46;;;;;;;10.65;5.18;;;-3.50;99.90;;;;;;2081472;28;20250;-69
2021/12/19 01:32:48;;;;;;;13.37;5.63;;;-3.50;99.90;;;;;;2081289;28;20178;-69
2021/12/19 01:33:49;;;;;;;11.63;4.35;;;-3.50;99.90;;;;;;2081340;28;20168;-69
2021/12/19 01:34:50;;;;;;;10.37;4.33;;;-3.50;99.90;;;;;;2081432;28;20391;-69
2021/12/19 01:35:50;;;;;;;9.13;3.80;;;-3.50;99.90;;;;;;2081955;28;20174;-71
2021/12/19 01:36:51;;;;;;;8.63;4.27;;;-3.50;99.90;;;;;;2081873;28;20179;-71
2021/12/19 01:37:53;;;;;;;8.07;3.67;;;-3.50;99.90;;;;;;2082091;28;20214;-70
2021/12/19 01:38:53;;;;;;;9.35;3.70;;;-3.50;99.90;;;;;;2081429;28;20720;-69
2021/12/19 01:39:54;;;;;;;7.37;4.03;;;-3.50;99.90;;;;;;2081781;28;20197;-69
2021/12/19 01:40:55;;;;;;;6.97;3.73;;;-3.50;99.90;;;;;;2082186;28;20686;-69
2021/12/19 01:41:57;;;;;;;6.17;3.00;;;-3.50;99.90;;;;;;2081651;28;20176;-69
2021/12/19 01:42:58;;;;;;;5.38;3.00;;;-3.60;99.80;;;;;;2081690;28;20729;-69
2021/12/19 01:43:59;;;;;;;4.70;2.50;;;-3.60;99.70;;;;;;2081539;28;20230;-69
2021/12/19 01:45:01;;;;;;;5.33;2.77;;;-3.60;99.70;;;;;;2073110;28;20264;-69
2021/12/19 01:46:02;;;;;;;5.25;2.78;;;-3.60;99.80;;;;;;2081613;28;20188;-69
2021/12/19 01:47:04;;;;;;;5.53;3.15;;;-3.60;99.90;;;;;;2081360;28;20202;-69
2021/12/19 01:48:09;;;;;;;5.70;2.92;;;-3.60;99.90;;;;;;2081672;28;20175;-69
2021/12/19 01:49:12;;;;;;;5.18;3.38;;;-3.60;99.90;;;;;;2081384;28;20213;-69
2021/12/19 01:50:13;;;;;;;5.45;3.10;;;-3.60;99.90;;;;;;2081470;28;20195;-69
2021/12/19 01:51:14;;;;;;;5.53;3.33;;;-3.60;99.90;;;;;;2081177;28;20227;-70
2021/12/19 01:52:15;;;;;;;9.57;3.33;;;-3.60;99.90;;;;;;2081309;28;20175;-70
2021/12/19 01:53:16;;;;;;;5.80;2.90;;;-3.60;99.90;;;;;;2081949;28;20211;-69
2021/12/19 01:54:17;;;;;;;6.75;3.40;;;-3.60;99.90;;;;;;2081984;28;20176;-70
2021/12/19 01:55:19;;;;;;;7.07;3.22;;;-3.60;99.90;;;;;;2080860;28;20211;-69
2021/12/19 01:56:20;;;;;;;5.45;3.38;;;-3.60;99.90;;;;;;2073360;28;20211;-70
2021/12/19 01:57:22;;;;;;;5.47;2.67;;;-3.60;99.90;;;;;;2072925;28;20683;-70
2021/12/19 01:58:22;;;;;;;5.10;2.65;;;-3.70;99.90;;;;;;2081405;28;20183;-70
2021/12/19 01:59:23;;;;;;;4.60;2.37;;;-3.70;99.90;;;;;;2081264;28;20554;-69
2021/12/19 02:00:34;;;;;;;5.37;3.00;;;-3.70;99.90;;;;;;2081260;28;20688;-70
2021/12/19 02:01:48;;;;;;;6.57;3.30;;;-3.70;99.90;;;;;;2081181;28;20318;-70
2021/12/19 02:02:49;;;;;;;6.22;3.42;;;-3.70;99.90;;;;;;2081375;28;20173;-70
2021/12/19 02:03:50;;;;;;;6.40;3.37;;;-3.70;99.90;;;;;;2081290;28;20571;-70
2021/12/19 02:04:51;;;;;;;5.43;3.00;;;-3.80;99.90;;;;;;2081869;28;20179;-69
2021/12/19 02:05:52;;;;;;;4.70;3.00;;;-3.70;99.90;;;;;;2081003;28;20188;-70
2021/12/19 02:06:53;;;;;;;4.38;2.60;;;-3.70;99.90;;;;;;2078605;28;20661;-69
2021/12/19 02:07:55;;;;;;;3.03;2.20;;;-3.70;99.90;;;;;;2073001;28;20184;-70
2021/12/19 02:08:59;;;;;;;5.88;2.50;;;-3.70;99.90;;;;;;2072939;28;20311;-70
2021/12/19 02:10:00;;;;;;;5.47;2.40;;;-3.70;99.90;;;;;;2065194;28;20185;-70
2021/12/19 02:11:00;;;;;;;4.50;2.07;;;-3.70;99.90;;;;;;2073074;28;20670;-70
2021/12/19 02:12:03;;;;;;;3.70;2.70;;;-3.70;99.90;;;;;;2073500;28;20695;-69
2021/12/19 02:13:07;;;;;;;5.20;2.40;;;-3.70;99.90;;;;;;2073752;28;20177;-70
2021/12/19 02:14:10;;;;;;;4.47;2.47;;;-3.60;99.90;;;;;;2073067;28;20184;-71
2021/12/19 02:15:16;;;;;;;3.92;1.92;;;-3.60;99.90;;;;;;2072950;28;20168;-69
2021/12/19 02:16:19;;;;;;;3.20;2.05;;;-3.60;99.90;;;;;;2072883;28;20667;-69
2021/12/19 02:17:19;;;;;;;2.78;1.63;;;-3.60;99.90;;;;;;2072936;28;20184;-70
2021/12/19 02:18:22;;;;;;;3.07;1.80;;;-3.60;99.90;;;;;;2072959;28;20180;-70
2021/12/19 02:19:24;;;;;;;3.00;1.85;;;-3.60;99.90;;;;;;2073041;28;20199;-70
2021/12/19 02:20:28;;;;;;;3.35;2.03;;;-3.60;99.90;;;;;;2072867;28;20662;-70
2021/12/19 02:21:29;;;;;;;3.22;1.80;;;-3.60;99.90;;;;;;2072707;28;20204;-70
2021/12/19 02:22:30;;;;;;;2.42;1.58;;;-3.60;99.90;;;;;;2079760;28;20249;-70
2021/12/19 02:23:30;;;;;;;2.07;1.37;;;-3.50;99.90;;;;;;2073042;28;20238;-70
2021/12/19 02:24:34;;;;;;;1.80;1.60;;;-3.50;99.90;;;;;;2080915;28;20180;-70
2021/12/19 02:25:34;;;;;;;2.80;1.67;;;-3.50;99.90;;;;;;2081328;28;20187;-70
2021/12/19 02:26:38;;;;;;;2.40;1.70;;;-3.50;99.90;;;;;;2080963;28;20242;-70
2021/12/19 02:27:39;;;;;;;3.53;1.50;;;-3.50;99.90;;;;;;2081219;28;20573;-69
2021/12/19 02:28:40;;;;;;;2.70;1.60;;;-3.50;99.90;;;;;;2080904;28;20190;-70
2021/12/19 02:29:41;;;;;;;2.78;1.63;;;-3.50;99.90;;;;;;2081158;28;20187;-70
2021/12/19 02:30:41;;;;;;;3.17;1.93;;;-3.60;99.90;;;;;;2080781;28;20321;-70
2021/12/19 02:31:42;;;;;;;2.87;2.10;;;-3.60;99.90;;;;;;2064604;28;20274;-70
2021/12/19 02:32:43;;;;;;;2.95;1.80;;;-3.60;99.90;;;;;;2064789;28;20412;-71
2021/12/19 02:33:58;;;;;;;2.80;1.87;;;-3.70;99.90;;;;;;2081019;28;20178;-70
2021/12/19 02:35:02;;;;;;;2.88;1.75;;;-3.60;99.90;;;;;;2081274;28;20594;-70
2021/12/19 02:36:20;;;;;;;2.75;1.70;;;-3.60;99.90;;;;;;2080993;28;20571;-70
2021/12/19 02:38:29;;;;;;;2.78;1.67;;;-3.70;99.90;;;;;;2081041;28;20168;-70
2021/12/19 02:40:20;;;;;;;5.07;1.73;;;-3.70;99.90;;;;;;2081688;28;20707;-69
2021/12/19 02:48:32;;;;;;;1.67;1.58;;;-3.70;99.90;;;;;;2066962;28;20200;-70
2021/12/19 02:49:34;;;;;;;2.00;1.67;;;-3.70;99.90;;;;;;2075560;28;20240;-70
2021/12/19 02:50:35;;;;;;;3.30;1.98;;;-3.70;99.90;;;;;;2080838;28;20182;-70
2021/12/19 02:51:36;;;;;;;1.77;1.30;;;-3.80;99.90;;;;;;2080719;28;20184;-70
2021/12/19 02:52:37;;;;;;;2.13;1.60;;;-3.80;99.90;;;;;;2080833;28;20723;-70
2021/12/19 02:53:41;;;;;;;2.60;1.77;;;-3.80;99.90;;;;;;2080815;28;20208;-70
2021/12/19 02:54:43;;;;;;;3.13;1.70;;;-3.80;99.90;;;;;;2080726;28;20462;-70
2021/12/19 02:55:43;;;;;;;2.72;1.50;;;-3.80;99.90;;;;;;2081329;28;20255;-70
2021/12/19 02:56:44;;;;;;;2.97;1.30;;;-3.70;99.90;;;;;;2080659;28;20208;-70
2021/12/19 02:57:48;;;;;;;2.63;1.63;;;-3.80;99.90;;;;;;2080605;28;20170;-70
2021/12/19 02:58:48;;;;;;;1.50;1.23;;;-3.80;99.90;;;;;;2080721;28;20213;-70
2021/12/19 02:59:49;;;;;;;1.97;1.53;;;-3.80;99.90;;;;;;2081336;28;20673;-70
2021/12/19 03:00:50;;;;;;;1.93;1.13;;;-3.80;99.90;;;;;;2081393;28;20188;-70
2021/12/19 03:01:51;;;;;;;3.05;1.67;;;-3.80;99.90;;;;;;2081168;28;20174;-69
2021/12/19 03:02:52;;;;;;;2.43;1.40;;;-3.80;99.90;;;;;;2081157;28;20184;-69
2021/12/19 03:03:53;;;;;;;2.03;1.30;;;-3.80;99.90;;;;;;2080662;28;20654;-70
2021/12/19 03:05:00;;;;;;;3.40;1.83;;;-3.80;99.90;;;;;;2072461;28;20240;-70
2021/12/19 03:06:01;;;;;;;2.45;1.50;;;-3.80;99.90;;;;;;2080274;28;20453;-69
2021/12/19 03:07:02;;;;;;;1.83;1.30;;;-3.80;99.90;;;;;;2063764;28;20283;-70
2021/12/19 03:08:04;;;;;;;1.70;1.17;;;-3.80;99.90;;;;;;2072484;28;20209;-70
2021/12/19 03:09:05;;;;;;;2.70;1.50;;;-3.80;99.90;;;;;;2081276;28;20758;-70
2021/12/19 03:17:57;;;;;;;2.45;1.33;;;-3.70;99.90;;;;;;2081122;28;20659;-70
2021/12/19 03:18:19;;;;;;;2.50;1.25;;;-3.70;99.90;;;;;;2081056;28;20189;-69
2021/12/19 03:19:20;;;;;;;2.00;1.20;;;-3.70;99.90;;;;;;2080482;28;20199;-69
2021/12/19 03:20:21;;;;;;;1.53;1.20;;;-3.70;99.90;;;;;;2080659;28;20175;-69
2021/12/19 03:21:24;;;;;;;1.67;1.20;;;-3.70;99.90;;;;;;2081167;28;20447;-69
2021/12/19 03:22:25;;;;;;;1.70;1.20;;;-3.70;99.90;;;;;;2081157;28;20181;-70
2021/12/19 03:23:26;;;;;;;2.87;1.57;;;-3.60;99.90;;;;;;2080655;28;20198;-70
2021/12/19 03:24:27;;;;;;;2.15;1.52;;;-3.60;99.90;;;;;;2072355;28;20881;-69
2021/12/19 03:25:29;;;;;;;1.90;1.60;;;-3.60;99.90;;;;;;2080566;28;20212;-70
2021/12/19 03:26:31;;;;;;;2.40;1.55;;;-3.60;99.90;;;;;;2080539;28;20189;-70
2021/12/19 03:27:31;;;;;;;1.63;1.10;;;-3.60;99.90;;;;;;2080607;28;20658;-70
2021/12/19 03:28:32;;;;;;;1.77;1.20;;;-3.60;99.90;;;;;;2081131;28;20273;-70
2021/12/19 03:29:33;;;;;;;1.80;1.25;;;-3.60;99.90;;;;;;2081138;28;20200;-70
2021/12/19 03:30:39;;;;;;;1.00;0.90;;;-3.60;99.90;;;;;;2081107;28;20256;-70
2021/12/19 03:31:40;;;;;;;1.98;1.15;;;-3.60;99.90;;;;;;2080225;28;20235;-70
2021/12/19 03:32:40;;;;;;;1.13;1.00;;;-3.70;99.90;;;;;;2080533;28;20259;-70
2021/12/19 03:33:41;;;;;;;1.40;1.30;;;-3.70;99.90;;;;;;2081209;28;20175;-69
2021/12/19 03:34:42;;;;;;;1.20;1.10;;;-3.60;99.90;;;;;;2080938;28;20270;-70
2021/12/19 03:35:43;;;;;;;1.27;0.80;;;-3.60;99.90;;;;;;2080626;28;20170;-69
2021/12/19 03:36:48;;;;;;;1.00;0.90;;;-3.60;99.90;;;;;;2080341;28;20173;-70
2021/12/19 03:37:50;;;;;;;0.90;0.73;;;-3.60;99.90;;;;;;2072375;28;20182;-70
2021/12/19 03:38:57;;;;;;;1.23;0.88;;;-3.60;99.90;;;;;;2072455;28;20289;-70
2021/12/19 03:40:09;;;;;;;1.42;1.08;;;-3.60;99.90;;;;;;2080591;28;20189;-70
2021/12/19 03:41:21;;;;;;;1.92;0.90;;;-3.60;99.90;;;;;;2081157;28;20180;-70
2021/12/19 03:42:25;;;;;;;1.98;1.10;;;-3.60;99.90;;;;;;2081131;28;20206;-70
2021/12/19 03:43:26;;;;;;;1.17;0.93;;;-3.60;99.90;;;;;;2080970;28;20175;-70
2021/12/19 03:44:26;;;;;;;1.70;1.10;;;-3.60;99.90;;;;;;2080553;28;20182;-69
2021/12/19 03:45:27;;;;;;;1.50;1.07;;;-3.60;99.90;;;;;;2080260;28;20174;-70
2021/12/19 03:46:28;;;;;;;1.70;1.13;;;-3.60;99.90;;;;;;2080513;28;20174;-70
2021/12/19 03:47:29;;;;;;;1.63;1.10;;;-3.70;99.80;;;;;;2080551;28;20206;-70
2021/12/19 03:48:30;;;;;;;1.20;1.10;;;-3.70;99.90;;;;;;2080418;28;20203;-69
2021/12/19 03:49:30;;;;;;;0.90;0.70;;;-3.70;99.70;;;;;;2080319;28;20206;-69
2021/12/19 03:50:33;;;;;;;1.47;0.93;;;-3.70;99.70;;;;;;2080554;28;20187;-70
2021/12/19 03:51:33;;;;;;;0.95;0.73;;;-3.70;99.70;;;;;;2080413;28;20185;-70
2021/12/19 03:52:34;;;;;;;1.17;0.80;;;-3.70;99.80;;;;;;2080589;28;20226;-69
2021/12/19 03:53:35;;;;;;;1.00;0.80;;;-3.70;99.90;;;;;;2080413;28;20173;-70
2021/12/19 03:54:36;;;;;;;1.07;0.90;;;-3.70;99.90;;;;;;2080374;28;20673;-69
2021/12/19 03:55:37;;;;;;;1.57;1.00;;;-3.70;99.90;;;;;;2081019;28;20311;-70
2021/12/19 03:56:37;;;;;;;0.80;0.80;;;-3.70;99.90;;;;;;2080360;28;20193;-69
2021/12/19 03:57:39;;;;;;;2.07;1.00;;;-3.70;99.90;;;;;;2072131;28;20617;-69
2021/12/19 03:58:40;;;;;;;1.05;0.70;;;-3.70;99.90;;;;;;2080405;28;20221;-70
2021/12/19 03:59:43;;;;;;;1.10;0.88;;;-3.60;99.90;;;;;;2080361;28;20682;-69
2021/12/19 04:00:45;;;;;;;2.13;1.20;;;-3.70;99.90;;;;;;2080493;28;20707;-70
2021/12/19 04:01:50;;;;;;;1.30;0.73;;;-3.60;99.90;;;;;;2080220;28;20179;-70
2021/12/19 04:03:05;;;;;;;3.13;1.00;;;-3.60;99.90;;;;;;2080528;28;20225;-70
2021/12/19 04:04:05;;;;;;;0.73;0.60;;;-3.60;99.90;;;;;;2081080;28;20175;-70
2021/12/19 04:05:07;;;;;;;2.30;0.93;;;-3.60;99.90;;;;;;2080965;28;20224;-70
2021/12/19 04:06:07;;;;;;;1.35;0.80;;;-3.50;99.90;;;;;;2080209;28;20208;-70
2021/12/19 04:07:08;;;;;;;1.23;0.80;;;-3.60;99.90;;;;;;2080340;28;20183;-70
2021/12/19 04:08:10;;;;;;;1.90;0.90;;;-3.60;99.90;;;;;;2080957;28;20178;-70
2021/12/19 04:09:10;;;;;;;2.15;0.90;;;-3.60;99.70;;;;;;2080917;28;20210;-69
2021/12/19 04:10:11;;;;;;;1.40;1.00;;;-3.60;99.60;;;;;;2080395;28;20190;-70
2021/12/19 04:11:12;;;;;;;1.58;1.23;;;-3.70;99.50;;;;;;2072218;28;20203;-70
2021/12/19 04:12:13;;;;;;;3.03;1.63;;;-3.70;99.50;;;;;;2080296;28;20204;-70
2021/12/19 04:13:16;;;;;;;3.15;1.83;;;-3.80;99.40;;;;;;2080500;28;20210;-69
2021/12/19 04:14:16;;;;;;;2.50;1.70;;;-3.80;99.40;;;;;;2072503;28;20693;-70
2021/12/19 04:15:17;;;;;;;2.63;1.33;;;-3.80;99.40;;;;;;2072192;28;20270;-69
2021/12/19 04:16:18;;;;;;;1.57;1.00;;;-3.80;99.30;;;;;;2076865;28;20756;-70
2021/12/19 04:17:19;;;;;;;1.67;0.90;;;-3.80;99.20;;;;;;2072697;28;21112;-70
2021/12/19 04:18:20;;;;;;;1.17;0.90;;;-3.80;99.20;;;;;;2073351;28;20182;-69
2021/12/19 04:19:20;;;;;;;1.45;0.80;;;-3.90;99.40;;;;;;2073639;28;20200;-70
2021/12/19 04:20:21;;;;;;;2.10;1.10;;;-3.90;99.30;;;;;;2075876;28;20311;-70
2021/12/19 04:21:22;;;;;;;1.53;0.90;;;-3.90;99.20;;;;;;2081844;28;20183;-70
2021/12/19 04:22:23;;;;;;;1.25;0.90;;;-3.90;99.10;;;;;;2081999;28;20542;-70
2021/12/19 04:23:24;;;;;;;2.50;0.80;;;-3.90;99.10;;;;;;2081733;28;20217;-69
2021/12/19 04:24:25;;;;;;;1.37;0.80;;;-3.90;99.20;;;;;;2082049;28;20172;-70
2021/12/19 04:25:25;;;;;;;1.73;1.00;;;-3.90;99.20;;;;;;2081681;28;20233;-69
2021/12/19 04:26:26;;;;;;;2.03;0.80;;;-3.90;99.20;;;;;;2081984;28;20606;-70
2021/12/19 04:27:29;;;;;;;0.97;0.73;;;-3.90;99.30;;;;;;2081829;28;20192;-69
2021/12/19 04:28:29;;;;;;;1.13;0.80;;;-3.90;99.50;;;;;;2081627;28;20190;-70
2021/12/19 04:29:30;;;;;;;0.83;0.67;;;-3.90;99.50;;;;;;2081812;28;20206;-70
2021/12/19 04:30:31;;;;;;;0.50;0.50;;;-3.90;99.40;;;;;;2082570;28;20236;-70
2021/12/19 04:31:32;;;;;;;0.63;0.60;;;-3.90;99.10;;;;;;2082455;28;20170;-70
2021/12/19 04:32:38;;;;;;;2.27;0.70;;;-3.90;99.10;;;;;;2081930;28;20190;-70
2021/12/19 04:33:41;;;;;;;1.02;0.80;;;-3.90;99.10;;;;;;2081944;28;20181;-69
2021/12/19 04:34:41;;;;;;;0.90;0.73;;;-3.90;99.10;;;;;;2083676;28;20179;-70
2021/12/19 04:35:44;;;;;;;1.30;0.80;;;-3.90;99.00;;;;;;2082582;28;20174;-70
2021/12/19 04:36:49;;;;;;;1.25;0.68;;;-3.90;98.90;;;;;;2082031;28;20227;-70
2021/12/19 04:51:01;;;;;;;1.67;0.90;;;-3.90;99.30;;;;;;2082125;28;20179;-70
2021/12/19 04:53:57;;;;;;;0.52;0.50;;;-4.00;99.30;;;;;;2082715;28;20192;-70
2021/12/19 04:56:25;;;;;;;1.08;0.70;;;-3.90;99.60;;;;;;2082191;28;20175;-70
2021/12/19 04:57:39;;;;;;;1.17;0.70;;;-3.90;99.70;;;;;;2081678;28;20823;-70
2021/12/19 04:59:10;;;;;;;1.20;0.73;;;-4.00;99.60;;;;;;2081689;28;20694;-70
2021/12/19 05:00:16;;;;;;;0.65;0.60;;;-4.00;99.70;;;;;;2081675;28;20289;-69
2021/12/19 05:06:17;;;;;;;0.90;0.80;;;-3.90;99.90;;;;;;2082180;28;20181;-70
2021/12/19 05:14:15;;;;;;;0.57;0.57;;;-3.80;99.90;;;;;;2082387;28;20166;-70
2021/12/19 05:15:16;;;;;;;1.35;0.73;;;-3.90;99.70;;;;;;2082126;28;20546;-70
2021/12/19 05:16:18;;;;;;;0.80;0.60;;;-3.90;99.50;;;;;;2082018;28;20179;-70
2021/12/19 05:17:24;;;;;;;0.50;0.50;;;-3.90;99.40;;;;;;2082036;28;20191;-71
2021/12/19 05:18:28;;;;;;;0.60;0.50;;;-3.90;99.30;;;;;;2073380;28;20182;-70
2021/12/19 05:19:42;;;;;;;0.73;0.65;;;-3.90;99.40;;;;;;2074386;28;20257;-70
2021/12/19 05:20:52;;;;;;;0.65;0.65;;;-3.90;99.50;;;;;;2082061;28;20663;-70
2021/12/19 05:21:57;;;;;;;1.15;0.70;;;-3.90;99.40;;;;;;2082086;28;20183;-70
2021/12/19 05:23:10;;;;;;;1.63;0.70;;;-3.90;99.20;;;;;;2082071;28;20174;-70
2021/12/19 05:25:30;;;;;;;0.57;0.40;;;-3.90;99.30;;;;;;2081644;28;20189;-70
2021/12/19 05:26:30;;;;;;;0.90;0.50;;;-3.90;99.40;;;;;;2082185;28;20247;-70
2021/12/19 05:27:31;;;;;;;0.40;0.40;;;-3.90;99.40;;;;;;2081171;28;20287;-70
2021/12/19 05:28:32;;;;;;;1.17;0.50;;;-3.90;99.30;;;;;;2081487;28;20291;-70
2021/12/19 05:29:34;;;;;;;0.67;0.50;;;-3.90;99.30;;;;;;2080662;28;20210;-69
2021/12/19 05:30:35;;;;;;;1.02;0.75;;;-3.90;99.30;;;;;;2073505;28;20239;-70
2021/12/19 05:31:36;;;;;;;0.97;0.50;;;-3.90;99.20;;;;;;2081449;28;20246;-70
2021/12/19 05:32:36;;;;;;;0.55;0.45;;;-3.90;99.20;;;;;;2082055;28;20182;-69
2021/12/19 05:33:37;;;;;;;1.50;0.60;;;-3.90;99.30;;;;;;2082072;28;20171;-70
2021/12/19 05:34:38;;;;;;;0.60;0.60;;;-3.90;99.00;;;;;;2081935;28;20549;-70
2021/12/19 05:45:59;;;;;;;0.57;0.50;;;-3.90;99.10;;;;;;2082025;28;20190;-69
2021/12/19 05:47:00;;;;;;;0.53;0.53;;;-3.90;99.40;;;;;;2081953;28;20575;-70
2021/12/19 05:48:01;;;;;;;0.60;0.60;;;-4.00;99.30;;;;;;2081418;28;20252;-69
2021/12/19 05:49:04;;;;;;;0.70;0.70;;;-4.00;99.10;;;;;;2081116;28;20216;-69
2021/12/19 05:50:05;;;;;;;0.43;0.35;;;-4.00;99.20;;;;;;2081279;28;20636;-70
2021/12/19 05:51:06;;;;;;;0.60;0.40;;;-4.00;99.30;;;;;;2081397;28;20200;-70
2021/12/19 05:52:07;;;;;;;1.10;0.57;;;-4.00;99.60;;;;;;2081974;28;20542;-70
2021/12/19 05:53:07;;;;;;;0.77;0.60;;;-3.90;99.50;;;;;;2081894;28;20245;-70
2021/12/19 05:54:10;;;;;;;0.83;0.57;;;-3.90;99.40;;;;;;2081976;28;20662;-70
2021/12/19 05:55:11;;;;;;;0.40;0.40;;;-4.00;99.40;;;;;;2081862;28;20307;-70
2021/12/19 05:56:12;;;;;;;1.00;0.60;;;-3.90;99.40;;;;;;2082012;28;20321;-70
2021/12/19 05:57:14;;;;;;;0.43;0.43;;;-3.90;99.40;;;;;;2081109;28;20999;-70
2021/12/19 05:58:15;;;;;;;0.40;0.40;;;-3.90;99.40;;;;;;2081304;28;20179;-70
2021/12/19 05:59:16;;;;;;;0.50;0.50;;;-4.00;99.30;;;;;;2081803;28;20207;-69
2021/12/19 06:00:18;;;;;;;0.50;0.50;;;-4.00;99.40;;;;;;2081770;28;20195;-70
2021/12/19 06:01:19;;;;;;;0.52;0.45;;;-4.00;99.30;;;;;;2081710;28;20676;-70
2021/12/19 06:02:20;;;;;;;0.90;0.50;;;-4.00;99.20;;;;;;2081687;28;20170;-69
2021/12/19 06:03:20;;;;;;;0.53;0.53;;;-4.00;99.20;;;;;;2081094;28;20620;-70
2021/12/19 06:04:21;;;;;;;0.60;0.60;;;-4.00;99.20;;;;;;2081042;28;20186;-70
2021/12/19 06:05:22;;;;;;;0.60;0.60;;;-4.00;99.00;;;;;;2080981;28;20179;-69
2021/12/19 06:06:26;;;;;;;1.80;0.70;;;-4.00;99.10;;;;;;2081104;28;20690;-69
2021/12/19 06:07:26;;;;;;;0.50;0.50;;;-4.00;99.10;;;;;;2080996;28;20182;-69
2021/12/19 06:08:27;;;;;;;1.00;0.50;;;-4.00;99.00;;;;;;2081723;28;20237;-69
2021/12/19 06:09:28;;;;;;;0.63;0.50;;;-4.00;98.90;;;;;;2081003;28;20214;-70
2021/12/19 06:10:28;;;;;;;1.67;0.63;;;-4.00;98.80;;;;;;2081051;28;20181;-69
2021/12/19 06:11:29;;;;;;;0.40;0.40;;;-4.00;98.70;;;;;;2081047;28;20172;-70
2021/12/19 06:12:31;;;;;;;0.87;0.60;;;-4.00;98.80;;;;;;2081696;28;20178;-69
2021/12/19 06:13:32;;;;;;;0.90;0.70;;;-4.00;99.00;;;;;;2081528;28;20200;-70
2021/12/19 06:14:34;;;;;;;0.47;0.47;;;-4.00;99.00;;;;;;2081259;28;20177;-70
2021/12/19 06:15:36;;;;;;;0.40;0.40;;;-4.00;98.90;;;;;;2081478;28;20416;-70
2021/12/19 06:16:36;;;;;;;0.80;0.60;;;-4.00;98.90;;;;;;2079228;28;20217;-70
2021/12/19 06:17:39;;;;;;;0.70;0.63;;;-4.00;98.80;;;;;;2064784;28;20662;-70
2021/12/19 06:18:40;;;;;;;0.82;0.60;;;-3.90;99.00;;;;;;2072757;28;20182;-69
2021/12/19 06:19:41;;;;;;;0.97;0.70;;;-3.90;99.10;;;;;;2064661;28;20178;-70
2021/12/19 06:20:42;;;;;;;1.73;0.60;;;-3.90;99.10;;;;;;2072724;28;20187;-70
2021/12/19 06:21:42;;;;;;;0.50;0.50;;;-4.00;99.10;;;;;;2073283;28;20179;-70
2021/12/19 06:22:43;;;;;;;0.50;0.50;;;-4.00;99.10;;;;;;2073406;28;20171;-70
2021/12/19 06:23:43;;;;;;;1.87;0.87;;;-3.90;99.20;;;;;;2073320;28;20171;-69
2021/12/19 06:24:44;;;;;;;0.80;0.70;;;-3.90;99.60;;;;;;2072697;28;20182;-70